createdAt,value
2022-11-10T00:02:27.009Z,14.40
2022-11-10T00:05:14.734Z,14.40
2022-11-10T00:08:05.756Z,14.40
2022-11-10T00:10:58.291Z,14.30
2022-11-10T00:14:07.202Z,14.30
2022-11-10T00:17:04.232Z,14.30
2022-11-10T00:19:50.141Z,14.30
2022-11-10T00:22:38.043Z,14.30
2022-11-10T00:25:26.627Z,14.30
2022-11-10T00:28:12.599Z,14.30
2022-11-10T00:30:59.201Z,14.30
2022-11-10T00:33:45.286Z,14.30
2022-11-10T00:36:31.902Z,14.30
2022-11-10T00:39:17.847Z,14.30
2022-11-10T00:42:04.629Z,14.30
2022-11-10T00:44:51.056Z,14.30
2022-11-10T00:47:36.965Z,14.30
2022-11-10T00:50:22.730Z,14.30
2022-11-10T00:53:08.575Z,14.30
2022-11-10T00:55:54.749Z,14.30
2022-11-10T00:58:41.117Z,14.20
2022-11-10T01:01:27.422Z,14.20
2022-11-10T01:04:13.694Z,14.10
2022-11-10T01:06:59.594Z,14.10
2022-11-10T01:09:45.960Z,14.00
2022-11-10T01:12:32.276Z,14.00
2022-11-10T01:15:26.034Z,13.90
2022-11-10T01:18:13.351Z,13.80
2022-11-10T01:20:59.475Z,13.80
2022-11-10T01:23:45.905Z,13.70
2022-11-10T01:26:32.395Z,13.70
2022-11-10T01:29:18.127Z,13.60
2022-11-10T01:32:04.082Z,13.50
2022-11-10T01:34:49.813Z,13.50
2022-11-10T01:37:36.020Z,13.40
2022-11-10T01:40:21.868Z,13.30
2022-11-10T01:43:10.572Z,13.30
2022-11-10T01:46:04.877Z,13.20
2022-11-10T01:48:56.271Z,13.10
2022-11-10T01:51:52.239Z,13.10
2022-11-10T01:54:45.831Z,13.00
2022-11-10T01:57:32.118Z,12.90
2022-11-10T02:00:19.243Z,12.90
2022-11-10T02:03:16.353Z,12.80
2022-11-10T02:06:04.420Z,12.80
2022-11-10T02:08:51.303Z,12.70
2022-11-10T02:11:38.859Z,12.70
2022-11-10T02:14:25.447Z,12.60
2022-11-10T02:17:12.229Z,12.50
2022-11-10T02:20:04.780Z,12.50
2022-11-10T02:22:50.552Z,12.40
2022-11-10T02:25:36.999Z,12.30
2022-11-10T02:28:24.346Z,12.30
2022-11-10T02:31:10.626Z,12.20
2022-11-10T02:33:57.078Z,12.20
2022-11-10T02:36:43.680Z,12.20
2022-11-10T02:39:29.665Z,12.10
2022-11-10T02:42:15.746Z,12.00
2022-11-10T02:45:01.696Z,12.00
2022-11-10T02:47:47.842Z,11.90
2022-11-10T02:50:34.369Z,11.90
2022-11-10T02:53:20.705Z,11.80
2022-11-10T02:56:07.302Z,11.90
2022-11-10T02:58:53.043Z,11.80
2022-11-10T03:01:39.238Z,11.80
2022-11-10T03:04:25.546Z,11.80
2022-11-10T03:07:11.532Z,11.80
2022-11-10T03:09:57.635Z,11.80
2022-11-10T03:12:43.260Z,11.70
2022-11-10T03:15:30.233Z,11.70
2022-11-10T03:18:16.164Z,11.70
2022-11-10T03:21:03.363Z,11.60
2022-11-10T03:23:49.103Z,11.60
2022-11-10T03:26:35.069Z,11.60
2022-11-10T03:29:20.766Z,11.50
2022-11-10T03:32:06.639Z,11.50
2022-11-10T03:34:52.435Z,11.50
2022-11-10T03:37:41.075Z,11.40
2022-11-10T03:40:27.357Z,11.40
2022-11-10T03:43:13.429Z,11.40
2022-11-10T03:45:59.323Z,11.40
2022-11-10T03:48:50.230Z,11.30
2022-11-10T03:51:39.069Z,11.30
2022-11-10T03:54:24.730Z,11.20
2022-11-10T03:57:10.466Z,11.20
2022-11-10T03:59:56.169Z,11.20
2022-11-10T04:02:42.098Z,11.20
2022-11-10T04:05:46.801Z,11.10
2022-11-10T04:08:51.588Z,11.10
2022-11-10T04:11:56.420Z,11.10
2022-11-10T04:15:01.118Z,11.10
2022-11-10T04:17:50.783Z,11.00
2022-11-10T04:20:36.680Z,11.00
2022-11-10T04:23:27.786Z,11.00
2022-11-10T04:26:30.192Z,10.90
2022-11-10T04:29:19.105Z,10.90
2022-11-10T04:32:05.166Z,10.80
2022-11-10T04:34:51.116Z,10.70
2022-11-10T04:37:37.396Z,10.70
2022-11-10T04:40:23.382Z,10.70
2022-11-10T04:43:09.023Z,10.60
2022-11-10T04:45:54.879Z,10.60
2022-11-10T04:48:40.335Z,10.50
2022-11-10T04:51:29.333Z,10.50
2022-11-10T04:54:15.427Z,10.50
2022-11-10T04:57:01.354Z,10.40
2022-11-10T04:59:47.048Z,10.40
2022-11-10T05:02:38.310Z,10.40
2022-11-10T05:05:26.224Z,10.30
2022-11-10T05:08:12.354Z,10.30
2022-11-10T05:10:58.161Z,10.30
2022-11-10T05:13:45.475Z,10.30
2022-11-10T05:16:31.956Z,10.20
2022-11-10T05:19:17.822Z,10.20
2022-11-10T05:22:03.796Z,10.20
2022-11-10T05:24:49.614Z,10.10
2022-11-10T05:27:35.494Z,10.10
2022-11-10T05:30:21.343Z,10.10
2022-11-10T05:33:08.191Z,10.10
2022-11-10T05:35:54.212Z,10.10
2022-11-10T05:38:43.509Z,10.10
2022-11-10T05:41:29.781Z,10.10
2022-11-10T05:44:15.687Z,10.10
2022-11-10T05:47:01.577Z,10.10
2022-11-10T05:49:47.370Z,10.00
2022-11-10T05:52:33.355Z,10.00
2022-11-10T05:55:27.292Z,10.00
2022-11-10T05:58:13.036Z,10.00
2022-11-10T06:00:59.127Z,10.00
2022-11-10T06:03:45.424Z,10.00
2022-11-10T06:06:31.727Z,10.00
2022-11-10T06:09:17.503Z,10.00
2022-11-10T06:12:04.033Z,9.90
2022-11-10T06:14:49.797Z,9.90
2022-11-10T06:17:37.835Z,9.90
2022-11-10T06:20:24.892Z,10.00
2022-11-10T06:23:12.032Z,9.90
2022-11-10T06:25:58.518Z,9.90
2022-11-10T06:28:44.620Z,9.90
2022-11-10T06:31:30.681Z,9.90
2022-11-10T06:34:16.578Z,9.80
2022-11-10T06:37:02.555Z,9.80
2022-11-10T06:39:48.508Z,9.80
2022-11-10T06:42:34.879Z,9.80
2022-11-10T06:45:22.005Z,9.80
2022-11-10T06:48:11.598Z,9.80
2022-11-10T06:51:01.760Z,9.90
2022-11-10T06:53:47.696Z,9.90
2022-11-10T06:56:34.732Z,10.00
2022-11-10T06:59:20.909Z,10.10
2022-11-10T07:02:13.707Z,10.30
2022-11-10T07:05:00.074Z,10.40
2022-11-10T07:07:46.323Z,10.60
2022-11-10T07:10:33.047Z,10.70
2022-11-10T07:13:20.064Z,10.80
2022-11-10T07:16:08.242Z,10.90
2022-11-10T07:18:54.487Z,11.00
2022-11-10T07:21:42.397Z,11.10
2022-11-10T07:24:30.493Z,11.20
2022-11-10T07:27:16.862Z,11.30
2022-11-10T07:30:03.361Z,11.40
2022-11-10T07:33:02.495Z,11.50
2022-11-10T07:35:55.057Z,11.60
2022-11-10T07:38:40.959Z,11.70
2022-11-10T07:41:27.004Z,11.80
2022-11-10T07:44:12.850Z,11.90
2022-11-10T07:46:59.061Z,12.00
2022-11-10T07:49:45.104Z,12.10
2022-11-10T07:52:30.892Z,12.20
2022-11-10T07:55:16.934Z,12.30
2022-11-10T07:58:03.596Z,12.40
2022-11-10T08:00:49.554Z,12.40
2022-11-10T08:03:35.513Z,12.50
2022-11-10T08:06:21.673Z,12.60
2022-11-10T08:09:07.716Z,12.70
2022-11-10T08:11:53.698Z,12.80
2022-11-10T08:14:39.535Z,12.90
2022-11-10T08:17:25.638Z,13.00
2022-11-10T08:20:12.398Z,13.10
2022-11-10T08:23:03.593Z,13.10
2022-11-10T08:25:52.858Z,13.30
2022-11-10T08:28:38.715Z,13.40
2022-11-10T08:31:25.075Z,13.50
2022-11-10T08:34:11.243Z,13.60
2022-11-10T08:36:58.677Z,13.70
2022-11-10T08:39:44.751Z,13.80
2022-11-10T08:42:30.920Z,13.90
2022-11-10T08:45:16.922Z,14.00
2022-11-10T08:48:06.235Z,14.00
2022-11-10T08:50:52.565Z,14.10
2022-11-10T08:53:38.621Z,14.20
2022-11-10T08:56:26.428Z,14.20
2022-11-10T08:59:12.746Z,14.20
2022-11-10T09:01:58.960Z,14.30
2022-11-10T09:04:45.183Z,14.30
2022-11-10T09:07:32.126Z,14.30
2022-11-10T09:10:18.823Z,14.30
2022-11-10T09:13:06.022Z,14.20
2022-11-10T09:15:52.223Z,14.20
2022-11-10T09:18:37.732Z,14.20
2022-11-10T09:21:23.550Z,14.10
2022-11-10T09:24:09.330Z,14.10
2022-11-10T09:26:55.366Z,14.10
2022-11-10T09:29:41.982Z,14.10
2022-11-10T09:32:27.955Z,14.10
2022-11-10T09:35:13.989Z,14.10
2022-11-10T09:38:00.088Z,14.10
2022-11-10T09:40:55.957Z,14.10
2022-11-10T09:43:47.944Z,14.20
2022-11-10T09:46:44.742Z,14.20
2022-11-10T09:49:44.967Z,14.20
2022-11-10T09:52:35.910Z,14.20
2022-11-10T09:55:37.511Z,14.30
2022-11-10T09:58:29.898Z,14.30
2022-11-10T10:01:19.185Z,14.40
2022-11-10T10:04:21.599Z,14.40
2022-11-10T10:07:13.330Z,14.40
2022-11-10T10:10:23.967Z,14.50
2022-11-10T10:13:49.230Z,14.50
2022-11-10T10:16:50.996Z,14.60
2022-11-10T10:19:41.359Z,14.60
2022-11-10T10:22:52.441Z,14.70
2022-11-10T10:25:41.596Z,14.80
2022-11-10T10:28:38.152Z,14.80
2022-11-10T10:31:32.627Z,14.80
2022-11-10T10:34:24.480Z,14.80
2022-11-10T10:37:25.619Z,14.90
2022-11-10T10:40:17.315Z,14.90
2022-11-10T10:43:04.287Z,14.90
2022-11-10T10:46:09.441Z,14.90
2022-11-10T10:49:28.194Z,14.90
2022-11-10T10:52:25.105Z,14.80
2022-11-10T10:55:14.052Z,14.80
2022-11-10T10:58:03.772Z,14.90
2022-11-10T11:01:06.282Z,14.90
2022-11-10T11:03:53.521Z,14.90
2022-11-10T11:06:39.852Z,14.90
2022-11-10T11:09:29.918Z,14.80
2022-11-10T11:12:22.312Z,14.80
2022-11-10T11:15:29.454Z,14.70
2022-11-10T11:18:17.950Z,14.70
2022-11-10T11:21:18.824Z,14.70
2022-11-10T11:24:25.935Z,14.70
2022-11-10T11:27:37.758Z,14.60
2022-11-10T11:30:28.457Z,14.60
2022-11-10T11:33:38.118Z,14.60
2022-11-10T11:36:34.756Z,14.70
2022-11-10T11:39:42.647Z,14.80
2022-11-10T11:42:49.458Z,14.90
2022-11-10T11:45:49.276Z,15.00
2022-11-10T11:48:51.560Z,15.10
2022-11-10T11:51:51.498Z,15.20
2022-11-10T11:55:04.207Z,15.20
2022-11-10T11:58:11.822Z,15.30
2022-11-10T12:01:22.666Z,15.30
2022-11-10T12:04:17.370Z,15.30
2022-11-10T12:07:28.330Z,15.30
2022-11-10T12:10:42.991Z,15.30
2022-11-10T12:14:02.592Z,15.30
2022-11-10T12:17:21.532Z,15.30
2022-11-10T12:20:33.640Z,15.40
2022-11-10T12:23:25.449Z,15.40
2022-11-10T12:26:52.554Z,15.40
2022-11-10T12:29:47.719Z,15.40
2022-11-10T12:32:41.957Z,15.40
2022-11-10T12:35:32.590Z,15.30
2022-11-10T12:38:29.163Z,15.30
2022-11-10T12:41:18.303Z,15.30
2022-11-10T12:44:35.276Z,15.20
2022-11-10T12:47:25.837Z,15.20
2022-11-10T12:50:39.634Z,15.30
2022-11-10T12:53:38.856Z,15.30
2022-11-10T12:56:50.491Z,15.40
2022-11-10T12:59:39.329Z,15.50
2022-11-10T13:02:37.979Z,15.60
2022-11-10T13:05:23.595Z,15.60
2022-11-10T13:08:19.989Z,15.60
2022-11-10T13:11:24.455Z,15.60
2022-11-10T13:14:22.606Z,15.60
2022-11-10T13:17:11.563Z,15.60
2022-11-10T13:20:20.817Z,15.60
2022-11-10T13:23:31.216Z,15.60
2022-11-10T13:26:40.300Z,15.60
2022-11-10T13:29:35.100Z,15.60
2022-11-10T13:32:30.204Z,15.50
2022-11-10T13:35:28.203Z,15.50
2022-11-10T13:38:32.562Z,15.40
2022-11-10T13:41:18.735Z,15.40
2022-11-10T13:44:24.785Z,15.30
2022-11-10T13:47:19.053Z,15.30
2022-11-10T13:50:28.113Z,15.20
2022-11-10T13:53:20.193Z,15.10
2022-11-10T13:56:40.318Z,15.10
2022-11-10T13:59:30.098Z,15.10
2022-11-10T14:02:34.893Z,15.00
2022-11-10T14:05:41.868Z,15.00
2022-11-10T14:08:32.634Z,14.90
2022-11-10T14:11:24.179Z,15.00
2022-11-10T14:14:25.003Z,14.80
2022-11-10T14:17:29.882Z,14.80
2022-11-10T14:20:26.078Z,14.80
2022-11-10T14:23:41.777Z,14.70
2022-11-10T14:26:32.972Z,14.70
2022-11-10T14:29:38.608Z,14.70
2022-11-10T14:32:26.011Z,14.70
2022-11-10T14:35:25.769Z,14.70
2022-11-10T14:38:21.235Z,14.70
2022-11-10T14:41:18.777Z,14.70
2022-11-10T14:44:07.690Z,14.70
2022-11-10T14:46:54.781Z,14.70
2022-11-10T14:49:41.841Z,14.70
2022-11-10T14:52:27.847Z,14.60
2022-11-10T14:55:18.336Z,14.60
2022-11-10T14:58:10.338Z,14.50
2022-11-10T15:00:56.501Z,14.50
2022-11-10T15:03:43.206Z,14.40
2022-11-10T15:06:30.666Z,14.40
2022-11-10T15:09:24.487Z,14.30
2022-11-10T15:12:13.326Z,14.30
2022-11-10T15:15:00.919Z,14.20
2022-11-10T15:17:50.448Z,14.20
2022-11-10T15:20:41.108Z,14.10
2022-11-10T15:23:36.469Z,14.00
2022-11-10T15:26:28.383Z,13.90
2022-11-10T15:29:21.623Z,13.80
2022-11-10T15:32:16.338Z,13.80
2022-11-10T15:35:22.136Z,13.70
2022-11-10T15:38:20.602Z,13.60
2022-11-10T15:41:27.360Z,13.50
2022-11-10T15:44:17.260Z,13.30
2022-11-10T15:47:03.497Z,13.20
2022-11-10T15:49:49.657Z,13.20
2022-11-10T15:52:38.591Z,13.10
2022-11-10T15:55:25.265Z,13.00
2022-11-10T15:58:18.010Z,12.90
2022-11-10T16:01:04.609Z,12.70
2022-11-10T16:03:50.724Z,12.60
2022-11-10T16:06:37.334Z,12.60
2022-11-10T16:09:23.390Z,12.50
2022-11-10T16:12:16.399Z,12.40
2022-11-10T16:15:02.710Z,12.30
2022-11-10T16:17:48.529Z,12.20
2022-11-10T16:20:34.421Z,12.20
2022-11-10T16:23:20.429Z,12.10
2022-11-10T16:26:07.686Z,12.00
2022-11-10T16:28:53.690Z,11.90
2022-11-10T16:31:39.819Z,11.80
2022-11-10T16:34:25.802Z,11.80
2022-11-10T16:37:13.025Z,11.70
2022-11-10T16:39:59.216Z,11.60
2022-11-10T16:42:45.657Z,11.50
2022-11-10T16:45:32.033Z,11.50
2022-11-10T16:48:23.884Z,11.40
2022-11-10T16:51:11.234Z,11.40
2022-11-10T16:53:59.393Z,11.30
2022-11-10T16:56:45.631Z,11.30
2022-11-10T16:59:31.665Z,11.20
2022-11-10T17:02:31.370Z,11.10
2022-11-10T17:05:19.414Z,11.10
2022-11-10T17:08:05.583Z,11.10
2022-11-10T17:10:52.053Z,11.00
2022-11-10T17:13:38.018Z,10.90
2022-11-10T17:16:35.681Z,10.90
2022-11-10T17:19:25.020Z,10.80
2022-11-10T17:22:12.500Z,10.80
2022-11-10T17:24:58.546Z,10.70
2022-11-10T17:27:44.642Z,10.60
2022-11-10T17:30:30.904Z,10.60
2022-11-10T17:33:16.871Z,10.60
2022-11-10T17:36:05.084Z,10.50
2022-11-10T17:38:52.332Z,10.40
2022-11-10T17:41:38.719Z,10.40
2022-11-10T17:44:24.678Z,10.30
2022-11-10T17:47:10.422Z,10.20
2022-11-10T17:49:56.433Z,10.20
2022-11-10T17:52:42.663Z,10.10
2022-11-10T17:55:34.071Z,10.10
2022-11-10T17:58:21.044Z,10.10
2022-11-10T18:01:18.686Z,10.00
2022-11-10T18:04:05.188Z,10.00
2022-11-10T18:06:51.427Z,10.00
2022-11-10T18:09:37.074Z,10.00
2022-11-10T18:12:27.776Z,9.90
2022-11-10T18:15:16.421Z,9.90
2022-11-10T18:18:02.444Z,9.80
2022-11-10T18:20:48.423Z,9.80
2022-11-10T18:23:34.772Z,9.80
2022-11-10T18:26:21.170Z,9.70
2022-11-10T18:29:07.108Z,9.70
2022-11-10T18:31:53.043Z,9.70
2022-11-10T18:34:39.236Z,9.60
2022-11-10T18:37:25.554Z,9.60
2022-11-10T18:40:12.324Z,9.50
2022-11-10T18:43:03.154Z,9.50
2022-11-10T18:45:53.971Z,9.50
2022-11-10T18:48:41.152Z,9.40
2022-11-10T18:51:27.367Z,9.40
2022-11-10T18:54:13.330Z,9.30
2022-11-10T18:56:59.639Z,9.30
2022-11-10T18:59:45.951Z,9.30
2022-11-10T19:02:32.011Z,9.20
2022-11-10T19:05:18.038Z,9.20
2022-11-10T19:08:04.215Z,9.20
2022-11-10T19:10:50.279Z,9.20
2022-11-10T19:13:37.371Z,9.10
2022-11-10T19:16:23.457Z,9.10
2022-11-10T19:19:10.706Z,9.10
2022-11-10T19:21:56.773Z,9.00
2022-11-10T19:25:06.206Z,9.00
2022-11-10T19:27:48.681Z,9.00
2022-11-10T19:30:34.711Z,8.90
2022-11-10T19:33:21.166Z,8.90
2022-11-10T19:36:15.702Z,8.90
2022-11-10T19:39:01.423Z,8.80
2022-11-10T19:41:47.385Z,8.80
2022-11-10T19:44:33.483Z,8.80
2022-11-10T19:47:19.558Z,8.70
2022-11-10T19:50:05.920Z,8.70
2022-11-10T19:52:52.174Z,8.70
2022-11-10T19:55:38.155Z,8.70
2022-11-10T19:58:24.356Z,8.60
2022-11-10T20:01:11.732Z,8.50
2022-11-10T20:04:02.860Z,8.50
2022-11-10T20:06:48.438Z,8.50
2022-11-10T20:09:34.388Z,8.50
2022-11-10T20:12:20.067Z,8.40
2022-11-10T20:15:06.648Z,8.40
2022-11-10T20:17:52.863Z,8.40
2022-11-10T20:20:39.747Z,8.40
2022-11-10T20:23:26.043Z,8.40
2022-11-10T20:26:14.978Z,8.30
2022-11-10T20:29:00.949Z,8.30
2022-11-10T20:31:46.712Z,8.30
2022-11-10T20:34:32.770Z,8.20
2022-11-10T20:37:18.838Z,8.20
2022-11-10T20:40:14.059Z,8.20
2022-11-10T20:43:10.346Z,8.10
2022-11-10T20:45:56.090Z,8.10
2022-11-10T20:48:43.575Z,8.10
2022-11-10T20:51:29.895Z,8.10
2022-11-10T20:54:17.397Z,8.00
2022-11-10T20:57:03.489Z,8.00
2022-11-10T20:59:49.606Z,8.10
2022-11-10T21:02:35.556Z,8.00
2022-11-10T21:05:21.394Z,7.90
2022-11-10T21:08:07.684Z,7.90
2022-11-10T21:11:05.808Z,7.90
2022-11-10T21:13:52.086Z,7.90
2022-11-10T21:16:38.087Z,7.90
2022-11-10T21:19:24.139Z,7.90
2022-11-10T21:22:10.207Z,7.80
2022-11-10T21:24:56.028Z,7.90
2022-11-10T21:27:42.035Z,7.80
2022-11-10T21:30:28.402Z,7.80
2022-11-10T21:33:14.647Z,7.80
2022-11-10T21:36:07.183Z,7.80
2022-11-10T21:38:53.308Z,7.80
2022-11-10T21:41:39.134Z,7.80
2022-11-10T21:44:25.118Z,7.80
2022-11-10T21:47:11.597Z,7.80
2022-11-10T21:49:57.578Z,7.70
2022-11-10T21:52:43.638Z,7.70
2022-11-10T21:55:29.769Z,7.70
2022-11-10T21:58:15.611Z,7.70
2022-11-10T22:01:07.437Z,7.60
2022-11-10T22:03:53.635Z,7.60
2022-11-10T22:06:58.332Z,7.60
2022-11-10T22:10:03.315Z,7.60
2022-11-10T22:13:08.378Z,7.60
2022-11-10T22:16:13.339Z,7.50
2022-11-10T22:18:59.483Z,7.50
2022-11-10T22:21:45.567Z,7.40
2022-11-10T22:24:31.804Z,7.40
2022-11-10T22:27:18.044Z,7.40
2022-11-10T22:30:04.594Z,7.30
2022-11-10T22:32:50.570Z,7.30
2022-11-10T22:35:45.673Z,7.30
2022-11-10T22:38:37.257Z,7.30
2022-11-10T22:41:42.537Z,7.30
2022-11-10T22:44:28.590Z,7.30
2022-11-10T22:47:14.432Z,7.30
2022-11-10T22:50:00.245Z,7.20
2022-11-10T22:52:46.131Z,7.20
2022-11-10T22:55:31.921Z,7.20
2022-11-10T22:58:18.783Z,7.20
2022-11-10T23:01:09.513Z,7.20
2022-11-10T23:03:59.550Z,7.10
2022-11-10T23:06:45.377Z,7.10
2022-11-10T23:09:31.245Z,7.10
2022-11-10T23:12:18.228Z,7.10
2022-11-10T23:15:04.158Z,7.20
2022-11-10T23:17:50.373Z,7.00
2022-11-10T23:20:36.632Z,7.00
2022-11-10T23:23:22.954Z,7.00
2022-11-10T23:26:17.798Z,7.00
2022-11-10T23:29:03.683Z,6.90
2022-11-10T23:31:50.155Z,6.90
2022-11-10T23:34:35.889Z,6.90
2022-11-10T23:37:22.510Z,6.80
2022-11-10T23:40:09.319Z,6.80
2022-11-10T23:42:55.195Z,6.80
2022-11-10T23:46:05.488Z,6.80
2022-11-10T23:48:47.469Z,6.70
2022-11-10T23:51:33.256Z,6.70
2022-11-10T23:54:20.013Z,6.70
2022-11-10T23:57:06.233Z,6.70
2022-11-10T23:59:52.032Z,6.70
